Time;durP1;ratioP1;P1;durP2;ratioP2;P2;SDS_P1;SDS_P2;PMS_P1;PMS_P2;Temp;Humidity;BMP_temperature;BMP_pressure;BME280_temperature;BME280_humidity;BME280_pressure;Samples;Min_cycle;Max_cycle;Signal;HPM_P1;HPM_P2
2023/01/22 00:00:56;;;;;;;13.07;6.35;;;-0.40;99.90;;;;;;5054158;28;20040;-69
2023/01/22 00:03:21;;;;;;;13.48;7.15;;;-0.40;99.90;;;;;;5053725;28;20025;-69
2023/01/22 00:05:49;;;;;;;12.60;6.97;;;-0.40;99.90;;;;;;5054927;28;20024;-70
2023/01/22 00:08:14;;;;;;;9.68;6.55;;;-0.50;99.90;;;;;;5054889;28;20059;-69
2023/01/22 00:10:46;;;;;;;12.70;6.85;;;-0.60;99.90;;;;;;5053260;28;20088;-69
2023/01/22 00:13:12;;;;;;;14.38;7.15;;;-0.60;99.90;;;;;;5055034;28;20025;-69
2023/01/22 00:15:37;;;;;;;8.85;7.03;;;-0.70;99.90;;;;;;5054642;28;20570;-69
2023/01/22 00:18:03;;;;;;;12.27;6.93;;;-0.60;99.90;;;;;;5054797;28;20033;-69
2023/01/22 00:20:28;;;;;;;16.25;7.88;;;-0.70;99.90;;;;;;5053714;28;20032;-69
2023/01/22 00:22:54;;;;;;;15.90;8.07;;;-0.60;99.90;;;;;;5054592;28;20024;-69
2023/01/22 00:25:19;;;;;;;21.30;7.75;;;-0.60;99.90;;;;;;5054701;28;20507;-69
2023/01/22 00:27:45;;;;;;;15.00;8.02;;;-0.50;99.90;;;;;;5054745;28;20087;-69
2023/01/22 00:30:11;;;;;;;15.43;7.75;;;-0.50;99.90;;;;;;5054245;28;20032;-69
2023/01/22 00:32:36;;;;;;;13.35;8.38;;;-0.60;99.90;;;;;;5055227;28;20449;-69
2023/01/22 00:35:02;;;;;;;24.92;8.40;;;-0.60;99.90;;;;;;5055897;28;20068;-69
2023/01/22 00:37:27;;;;;;;22.23;8.30;;;-0.50;99.90;;;;;;5054852;28;20028;-69
2023/01/22 00:39:53;;;;;;;12.30;8.27;;;-0.40;99.90;;;;;;5053441;28;20032;-69
2023/01/22 00:42:18;;;;;;;13.18;8.57;;;-0.40;99.90;;;;;;5054032;28;20029;-69
2023/01/22 00:44:44;;;;;;;17.13;10.32;;;-0.40;99.90;;;;;;5054444;28;20029;-69
2023/01/22 00:47:09;;;;;;;14.90;10.00;;;-0.30;99.90;;;;;;5054451;28;20025;-69
2023/01/22 00:49:35;;;;;;;25.08;9.82;;;-0.30;99.90;;;;;;5053402;28;20064;-69
2023/01/22 00:52:00;;;;;;;22.52;9.57;;;-0.20;99.90;;;;;;5054299;28;20077;-69
2023/01/22 00:54:26;;;;;;;13.10;8.15;;;-0.20;99.90;;;;;;5054529;28;20107;-69
2023/01/22 00:56:52;;;;;;;16.25;8.63;;;-0.20;99.90;;;;;;5054487;28;20024;-69
2023/01/22 00:59:17;;;;;;;14.20;8.23;;;-0.20;99.90;;;;;;5053391;28;20029;-69
2023/01/22 01:01:43;;;;;;;11.50;8.18;;;-0.10;99.90;;;;;;5054962;28;20094;-69
2023/01/22 01:04:08;;;;;;;11.35;7.22;;;-0.20;99.90;;;;;;5052657;28;20021;-69
2023/01/22 01:06:34;;;;;;;13.57;7.75;;;-0.10;99.90;;;;;;5053102;28;20025;-69
2023/01/22 01:09:00;;;;;;;12.70;7.07;;;-0.10;99.90;;;;;;5053264;28;20420;-69
2023/01/22 01:11:26;;;;;;;10.68;6.93;;;0.00;99.90;;;;;;5053088;28;20028;-69
2023/01/22 01:13:52;;;;;;;11.57;7.07;;;0.00;99.90;;;;;;5053111;28;20503;-69
2023/01/22 01:16:28;;;;;;;11.85;7.63;;;0.00;99.90;;;;;;5053595;28;20057;-69
2023/01/22 01:19:01;;;;;;;16.55;8.05;;;0.10;99.90;;;;;;5052822;28;20031;-69
2023/01/22 01:21:27;;;;;;;17.63;7.40;;;0.10;99.90;;;;;;5053899;28;20395;-69
2023/01/22 01:23:57;;;;;;;13.38;8.52;;;0.20;99.90;;;;;;5054070;28;20021;-69
2023/01/22 01:26:23;;;;;;;19.35;9.60;;;0.20;99.90;;;;;;5053678;28;20434;-69
2023/01/22 01:28:52;;;;;;;19.00;9.57;;;0.30;99.90;;;;;;5052766;28;20103;-69
2023/01/22 01:31:20;;;;;;;14.70;9.75;;;0.30;99.90;;;;;;5053161;28;20033;-69
2023/01/22 01:33:46;;;;;;;13.02;8.68;;;0.30;99.90;;;;;;5053455;28;20041;-69
2023/01/22 01:36:21;;;;;;;18.45;8.85;;;0.40;99.90;;;;;;5053762;28;20028;-69
2023/01/22 01:38:47;;;;;;;11.63;8.00;;;0.40;99.90;;;;;;5052646;28;20033;-69
2023/01/22 01:41:15;;;;;;;15.65;9.77;;;0.50;99.90;;;;;;5053810;28;20357;-69
2023/01/22 01:43:41;;;;;;;13.68;9.60;;;0.50;99.90;;;;;;5053483;28;20021;-69
2023/01/22 01:46:23;;;;;;;16.92;9.35;;;0.40;99.90;;;;;;5053596;28;20032;-69
2023/01/22 01:48:52;;;;;;;12.77;9.00;;;0.40;99.90;;;;;;5052323;28;20037;-69
2023/01/22 01:51:26;;;;;;;24.90;13.20;;;0.40;99.90;;;;;;5053708;28;20024;-69
2023/01/22 01:53:52;;;;;;;18.73;9.07;;;0.40;99.90;;;;;;5053641;28;20387;-69
2023/01/22 01:56:23;;;;;;;18.67;10.18;;;0.40;99.90;;;;;;5053711;28;20029;-69
2023/01/22 01:58:53;;;;;;;21.48;9.45;;;0.40;99.90;;;;;;5052514;28;20032;-69
2023/01/22 02:01:20;;;;;;;12.82;7.30;;;0.40;99.90;;;;;;5053251;28;20029;-69
2023/01/22 02:03:46;;;;;;;15.80;7.97;;;0.40;99.90;;;;;;5053093;28;20021;-69
2023/01/22 02:06:15;;;;;;;24.80;7.45;;;0.40;99.90;;;;;;5053220;28;20025;-69
2023/01/22 02:08:44;;;;;;;13.27;7.72;;;0.40;99.90;;;;;;5052308;28;20040;-69
2023/01/22 02:11:10;;;;;;;20.77;8.77;;;0.40;99.90;;;;;;5054328;28;20032;-69
2023/01/22 02:13:41;;;;;;;12.68;7.80;;;0.40;99.90;;;;;;5052973;28;20104;-69
2023/01/22 02:16:09;;;;;;;11.88;8.43;;;0.50;99.90;;;;;;5053219;28;20025;-69
2023/01/22 02:18:34;;;;;;;16.38;8.57;;;0.40;99.90;;;;;;5052224;28;20025;-69
2023/01/22 02:21:00;;;;;;;17.13;8.63;;;0.50;99.90;;;;;;5053075;28;20025;-69
2023/01/22 02:23:28;;;;;;;15.40;9.30;;;0.40;99.90;;;;;;5052034;28;20029;-69
2023/01/22 02:25:54;;;;;;;15.07;8.40;;;0.40;99.90;;;;;;5053324;28;20036;-69
2023/01/22 02:28:21;;;;;;;14.73;7.93;;;0.40;99.90;;;;;;5055363;28;20029;-69
2023/01/22 02:30:47;;;;;;;17.80;9.30;;;0.40;99.90;;;;;;5057034;28;20052;-69
2023/01/22 02:33:12;;;;;;;17.88;8.32;;;0.40;99.90;;;;;;5057086;28;20495;-70
2023/01/22 02:35:38;;;;;;;13.30;7.32;;;0.40;99.90;;;;;;5055940;28;20064;-69
2023/01/22 02:38:04;;;;;;;12.40;7.25;;;0.50;99.90;;;;;;5056974;28;20021;-69
2023/01/22 02:40:29;;;;;;;17.95;7.35;;;0.50;99.90;;;;;;5056777;28;20029;-69
2023/01/22 02:42:55;;;;;;;8.23;6.63;;;0.50;99.90;;;;;;5056604;28;20540;-69
2023/01/22 02:45:22;;;;;;;13.85;6.00;;;0.50;99.90;;;;;;5057024;28;20047;-70
2023/01/22 02:47:48;;;;;;;10.02;5.40;;;0.40;99.90;;;;;;5056132;28;20082;-69
2023/01/22 02:50:13;;;;;;;10.15;7.00;;;0.50;99.90;;;;;;5056709;28;20479;-69
2023/01/22 02:52:39;;;;;;;9.18;6.70;;;0.40;99.90;;;;;;5056301;28;20564;-69
2023/01/22 02:55:05;;;;;;;10.63;7.40;;;0.40;99.90;;;;;;5056481;28;20107;-69
2023/01/22 02:57:31;;;;;;;12.68;7.30;;;0.40;99.90;;;;;;5055585;28;20154;-69
2023/01/22 02:59:57;;;;;;;16.65;8.43;;;0.40;99.90;;;;;;5056761;28;20059;-69
2023/01/22 03:02:23;;;;;;;18.60;8.20;;;0.40;99.90;;;;;;5056453;28;20017;-69
2023/01/22 03:04:49;;;;;;;11.68;7.72;;;0.40;99.90;;;;;;5056389;28;20464;-69
2023/01/22 03:07:16;;;;;;;9.45;7.40;;;0.30;99.90;;;;;;5055309;28;20104;-69
2023/01/22 03:09:42;;;;;;;13.45;7.30;;;0.30;99.90;;;;;;5056743;28;20025;-69
2023/01/22 03:12:07;;;;;;;12.82;8.15;;;0.30;99.90;;;;;;5057193;28;20039;-69
2023/01/22 03:22:45;;;;;;;10.23;7.20;;;0.40;99.90;;;;;;5056112;28;20122;-69
2023/01/22 03:25:10;;;;;;;14.95;7.20;;;0.30;99.90;;;;;;5055993;28;20020;-69
2023/01/22 03:27:36;;;;;;;9.90;6.72;;;0.30;99.90;;;;;;5055113;28;20033;-69
2023/01/22 03:30:03;;;;;;;14.35;7.88;;;0.30;99.90;;;;;;5055979;28;20025;-69
2023/01/22 03:32:28;;;;;;;12.60;5.93;;;0.30;99.90;;;;;;5055787;28;20438;-69
2023/01/22 03:34:54;;;;;;;13.68;6.45;;;0.30;99.90;;;;;;5055855;28;20021;-69
2023/01/22 03:37:19;;;;;;;13.63;7.75;;;0.30;99.90;;;;;;5055205;28;20436;-69
2023/01/22 03:39:45;;;;;;;12.35;7.03;;;0.30;99.90;;;;;;5055768;28;20048;-69
2023/01/22 03:42:10;;;;;;;17.85;6.97;;;0.30;99.90;;;;;;5055835;28;20491;-69
2023/01/22 03:44:36;;;;;;;10.07;6.68;;;0.30;99.90;;;;;;5055612;28;20021;-69
2023/01/22 03:47:02;;;;;;;15.05;6.80;;;0.30;99.90;;;;;;5054786;28;20025;-69
2023/01/22 03:49:27;;;;;;;15.18;7.03;;;0.30;99.90;;;;;;5055778;28;20013;-69
2023/01/22 03:51:54;;;;;;;11.48;7.18;;;0.30;99.90;;;;;;5056033;28;20033;-69
2023/01/22 03:54:20;;;;;;;10.65;6.47;;;0.30;99.90;;;;;;5054165;28;20021;-69
2023/01/22 03:56:45;;;;;;;13.82;8.05;;;0.30;99.90;;;;;;5054579;28;20445;-69
2023/01/22 03:59:11;;;;;;;12.73;7.50;;;0.30;99.90;;;;;;5055362;28;20033;-69
2023/01/22 04:01:36;;;;;;;10.27;6.95;;;0.30;99.90;;;;;;5053994;28;20028;-69
2023/01/22 04:04:02;;;;;;;12.82;7.07;;;0.40;99.90;;;;;;5055271;28;20078;-69
2023/01/22 04:06:29;;;;;;;10.80;6.57;;;0.30;99.90;;;;;;5054342;28;20033;-69
2023/01/22 04:08:55;;;;;;;9.20;6.55;;;0.30;99.90;;;;;;5053134;28;20027;-69
2023/01/22 04:11:21;;;;;;;11.95;6.22;;;0.30;99.90;;;;;;5055150;28;20021;-69
2023/01/22 04:13:46;;;;;;;16.70;7.18;;;0.30;99.90;;;;;;5054951;28;20025;-69
2023/01/22 04:16:13;;;;;;;12.27;7.03;;;0.30;99.90;;;;;;5054968;28;20083;-69
2023/01/22 04:18:40;;;;;;;10.43;7.25;;;0.40;99.90;;;;;;5054138;28;20041;-69
2023/01/22 04:21:06;;;;;;;10.75;6.80;;;0.30;99.90;;;;;;5055596;28;20186;-69
2023/01/22 04:23:32;;;;;;;14.50;7.72;;;0.30;99.90;;;;;;5054883;28;20028;-69
2023/01/22 04:25:57;;;;;;;13.20;7.97;;;0.30;99.90;;;;;;5052991;28;20030;-69
2023/01/22 04:28:23;;;;;;;12.10;8.38;;;0.30;99.90;;;;;;5048787;28;20040;-69
2023/01/22 04:30:52;;;;;;;14.13;8.30;;;0.30;99.90;;;;;;5052789;28;20028;-69
2023/01/22 04:33:18;;;;;;;10.98;6.60;;;0.30;99.90;;;;;;5054164;28;20106;-69
2023/01/22 04:35:44;;;;;;;17.65;8.40;;;0.30;99.90;;;;;;5048002;28;20476;-69
2023/01/22 04:38:12;;;;;;;9.10;6.93;;;0.30;99.90;;;;;;5051833;28;20021;-69
2023/01/22 04:40:38;;;;;;;12.50;7.32;;;0.30;99.90;;;;;;5054929;28;20028;-69
2023/01/22 04:43:06;;;;;;;10.57;7.10;;;0.30;99.90;;;;;;5054486;28;20017;-69
2023/01/22 04:45:32;;;;;;;8.35;6.15;;;0.30;99.90;;;;;;5054548;28;20424;-69
2023/01/22 04:47:57;;;;;;;10.65;5.85;;;0.30;99.90;;;;;;5053709;28;20113;-69
2023/01/22 04:50:26;;;;;;;10.05;6.78;;;0.30;99.90;;;;;;5052485;28;20029;-69
2023/01/22 04:52:53;;;;;;;18.58;6.60;;;0.20;99.90;;;;;;5054195;28;20017;-69
2023/01/22 04:55:19;;;;;;;12.98;6.60;;;0.20;99.90;;;;;;5054294;28;20082;-69
2023/01/22 04:57:44;;;;;;;13.10;5.50;;;0.20;99.90;;;;;;5043990;28;20025;-69
2023/01/22 05:00:11;;;;;;;11.63;7.45;;;0.20;99.90;;;;;;5034320;28;20032;-69
2023/01/22 05:02:37;;;;;;;10.60;6.70;;;0.20;99.90;;;;;;5034112;28;20488;-69
2023/01/22 05:05:05;;;;;;;8.38;5.38;;;0.20;99.90;;;;;;5034280;28;20033;-69
2023/01/22 05:07:30;;;;;;;9.90;6.50;;;0.20;99.90;;;;;;5040292;28;20028;-69
2023/01/22 05:09:56;;;;;;;16.58;6.45;;;0.20;99.90;;;;;;5054089;28;20124;-69
2023/01/22 05:12:21;;;;;;;10.55;6.18;;;0.20;99.90;;;;;;5054510;28;20029;-69
2023/01/22 05:14:47;;;;;;;10.27;6.00;;;0.20;99.90;;;;;;5036222;28;20044;-69
2023/01/22 05:17:13;;;;;;;10.60;6.60;;;0.20;99.90;;;;;;5038254;28;20025;-69
2023/01/22 05:19:38;;;;;;;14.15;7.10;;;0.20;99.90;;;;;;5053873;28;20032;-69
2023/01/22 05:22:04;;;;;;;9.05;5.80;;;0.20;99.90;;;;;;5053808;28;20032;-68
2023/01/22 05:24:30;;;;;;;15.32;6.53;;;0.20;99.90;;;;;;5052434;28;20028;-68
2023/01/22 05:26:55;;;;;;;14.50;5.85;;;0.20;99.90;;;;;;5052881;28;20499;-69
2023/01/22 05:29:25;;;;;;;10.75;6.78;;;0.20;99.90;;;;;;5054020;28;20052;-68
2023/01/22 05:31:52;;;;;;;12.48;6.93;;;0.30;99.90;;;;;;5068878;28;20110;-69
2023/01/22 05:34:18;;;;;;;9.18;7.00;;;0.30;99.90;;;;;;5036237;28;20044;-69
2023/01/22 05:36:43;;;;;;;10.20;7.43;;;0.30;99.90;;;;;;5033994;28;20033;-69
2023/01/22 05:39:08;;;;;;;9.30;6.30;;;0.30;99.90;;;;;;5053078;28;20487;-68
2023/01/22 05:41:34;;;;;;;8.07;6.07;;;0.30;99.90;;;;;;5053558;28;20029;-69
2023/01/22 05:44:03;;;;;;;10.02;5.20;;;0.30;99.90;;;;;;5053635;28;20024;-69
2023/01/22 05:46:29;;;;;;;11.35;6.60;;;0.20;99.90;;;;;;5053453;28;20409;-69
2023/01/22 05:48:58;;;;;;;12.15;5.15;;;0.20;99.90;;;;;;5051121;28;20025;-69
2023/01/22 05:51:24;;;;;;;13.43;5.97;;;0.20;99.90;;;;;;5077081;22;20021;-70
2023/01/22 05:53:50;;;;;;;9.65;6.05;;;0.20;99.90;;;;;;5073369;28;20499;-69
2023/01/22 05:56:16;;;;;;;12.32;6.55;;;0.20;99.90;;;;;;5070618;28;20075;-67
2023/01/22 05:58:41;;;;;;;10.10;5.93;;;0.20;99.90;;;;;;5052442;28;20059;-67
2023/01/22 06:01:07;;;;;;;6.82;4.82;;;0.20;99.90;;;;;;5042021;28;20511;-67
2023/01/22 06:03:32;;;;;;;9.43;5.90;;;0.20;99.90;;;;;;5043041;28;20361;-67
2023/01/22 06:06:03;;;;;;;10.15;5.97;;;0.10;99.90;;;;;;5053120;28;20025;-67
2023/01/22 06:08:30;;;;;;;13.68;5.55;;;0.10;99.90;;;;;;5050123;28;20025;-68
2023/01/22 06:11:03;;;;;;;8.15;5.65;;;0.10;99.90;;;;;;5053035;28;20425;-67
2023/01/22 06:13:29;;;;;;;11.45;6.38;;;0.10;99.90;;;;;;5052851;28;20033;-67
2023/01/22 06:15:55;;;;;;;8.82;6.07;;;0.10;99.90;;;;;;5052922;28;20041;-68
2023/01/22 06:18:21;;;;;;;8.98;6.13;;;0.10;99.90;;;;;;5051797;28;20029;-67
2023/01/22 06:20:47;;;;;;;11.98;6.82;;;0.10;99.90;;;;;;5052954;28;20029;-67
2023/01/22 06:23:13;;;;;;;8.40;6.43;;;0.10;99.90;;;;;;5052909;28;20017;-67
2023/01/22 06:25:39;;;;;;;8.55;6.00;;;0.10;99.90;;;;;;5053168;28;20040;-68
2023/01/22 06:28:04;;;;;;;8.77;6.53;;;0.10;99.90;;;;;;5051693;28;20025;-67
2023/01/22 06:30:30;;;;;;;10.23;6.88;;;0.10;99.90;;;;;;5052868;28;20029;-68
2023/01/22 06:32:55;;;;;;;11.85;6.15;;;0.10;99.90;;;;;;5053024;28;20076;-68
2023/01/22 06:35:21;;;;;;;11.23;6.90;;;0.00;99.90;;;;;;5053292;28;20041;-67
2023/01/22 06:37:47;;;;;;;8.52;6.50;;;0.10;99.90;;;;;;5051560;28;20049;-67
2023/01/22 06:40:13;;;;;;;11.00;6.78;;;0.10;99.90;;;;;;5053070;28;20537;-68
2023/01/22 06:42:39;;;;;;;9.80;7.25;;;0.00;99.90;;;;;;5053049;28;20032;-68
2023/01/22 06:45:05;;;;;;;16.65;7.07;;;0.00;99.90;;;;;;5052800;28;20075;-68
2023/01/22 06:47:30;;;;;;;12.63;8.10;;;0.10;99.90;;;;;;5051655;28;20033;-67
2023/01/22 06:49:56;;;;;;;9.82;7.07;;;0.10;99.90;;;;;;5052956;28;20029;-67
2023/01/22 06:52:21;;;;;;;13.18;8.13;;;0.00;99.90;;;;;;5052494;28;20119;-67
2023/01/22 06:54:47;;;;;;;13.35;8.40;;;0.00;99.90;;;;;;5052570;28;20025;-68
2023/01/22 06:57:13;;;;;;;9.23;6.40;;;0.00;99.90;;;;;;5051788;28;20032;-67
2023/01/22 06:59:38;;;;;;;12.35;8.25;;;0.00;99.90;;;;;;5052548;28;20099;-68
2023/01/22 07:02:04;;;;;;;10.35;7.15;;;0.10;99.90;;;;;;5052828;28;20158;-67
2023/01/22 07:04:29;;;;;;;13.75;8.75;;;0.00;99.90;;;;;;5052522;28;20017;-68
2023/01/22 07:06:55;;;;;;;11.27;8.20;;;0.00;99.90;;;;;;5051792;28;20104;-67
2023/01/22 07:09:20;;;;;;;14.13;8.20;;;0.00;99.90;;;;;;5050510;28;20115;-67
2023/01/22 07:11:46;;;;;;;13.95;8.65;;;0.00;99.90;;;;;;5052736;28;20040;-68
2023/01/22 07:14:11;;;;;;;13.00;8.63;;;0.00;99.90;;;;;;5055346;28;20036;-67
2023/01/22 07:16:37;;;;;;;13.48;8.88;;;0.00;99.90;;;;;;5056273;28;20411;-68
2023/01/22 07:19:02;;;;;;;11.80;8.88;;;-0.10;99.90;;;;;;5038157;28;20029;-68
2023/01/22 07:21:28;;;;;;;14.50;8.35;;;-0.10;99.90;;;;;;5036144;28;20029;-68
2023/01/22 07:23:53;;;;;;;11.13;8.00;;;0.00;99.90;;;;;;5036015;28;20033;-67
2023/01/22 07:26:19;;;;;;;14.60;10.00;;;0.00;99.90;;;;;;5036235;28;20026;-67
2023/01/22 07:28:45;;;;;;;13.43;8.93;;;-0.10;99.90;;;;;;5036658;28;20040;-68
2023/01/22 07:31:11;;;;;;;13.73;9.43;;;-0.10;99.90;;;;;;5035832;28;20030;-67
2023/01/22 07:33:37;;;;;;;15.23;10.57;;;-0.10;99.90;;;;;;5036065;28;20480;-67
2023/01/22 07:36:03;;;;;;;16.73;11.30;;;-0.10;99.90;;;;;;5035959;28;20047;-67
2023/01/22 07:38:29;;;;;;;15.35;10.20;;;-0.10;99.90;;;;;;5046398;28;20029;-67
2023/01/22 07:41:05;;;;;;;19.45;11.40;;;-0.10;99.90;;;;;;5055596;28;20047;-68
2023/01/22 07:43:31;;;;;;;17.80;10.68;;;-0.20;99.90;;;;;;5055765;28;20036;-67
2023/01/22 07:46:02;;;;;;;15.13;10.93;;;-0.20;99.90;;;;;;5051254;28;20029;-67
2023/01/22 07:48:28;;;;;;;16.25;10.70;;;-0.20;99.90;;;;;;5054122;28;20039;-68
2023/01/22 07:50:53;;;;;;;16.05;10.02;;;-0.20;99.90;;;;;;5055460;28;20020;-68
2023/01/22 07:53:19;;;;;;;17.83;10.65;;;-0.30;99.90;;;;;;5044300;28;20037;-67
2023/01/22 07:55:44;;;;;;;13.73;10.63;;;-0.30;99.90;;;;;;5046562;28;20024;-68
2023/01/22 07:58:10;;;;;;;16.60;10.45;;;-0.30;99.90;;;;;;5049951;28;20496;-68
2023/01/22 08:00:36;;;;;;;12.48;8.68;;;-0.30;99.90;;;;;;5050679;28;20563;-68
2023/01/22 08:03:06;;;;;;;16.33;10.90;;;-0.30;99.90;;;;;;5055307;28;20100;-67
2023/01/22 08:05:32;;;;;;;22.75;11.35;;;-0.30;99.90;;;;;;5054177;28;20703;-67
2023/01/22 08:07:57;;;;;;;15.10;10.63;;;-0.30;99.90;;;;;;5055414;28;20025;-67
2023/01/22 08:10:23;;;;;;;15.43;10.02;;;-0.20;99.90;;;;;;5055239;28;20414;-67
2023/01/22 08:12:48;;;;;;;15.20;10.90;;;-0.30;99.90;;;;;;5055143;28;20029;-68
2023/01/22 08:15:14;;;;;;;14.70;9.73;;;-0.30;99.90;;;;;;5055148;28;20037;-68
2023/01/22 08:17:40;;;;;;;17.83;10.73;;;-0.30;99.90;;;;;;5054127;28;20025;-68
2023/01/22 08:20:06;;;;;;;13.45;10.05;;;-0.30;99.90;;;;;;5054991;28;20021;-68
2023/01/22 08:22:32;;;;;;;14.43;10.50;;;-0.30;99.90;;;;;;5054762;28;20536;-68
2023/01/22 08:24:57;;;;;;;18.63;10.10;;;-0.30;99.90;;;;;;5053669;28;20107;-68
2023/01/22 08:27:23;;;;;;;16.92;10.32;;;-0.20;99.90;;;;;;5038201;28;20515;-68
2023/01/22 08:29:51;;;;;;;13.88;9.93;;;-0.20;99.90;;;;;;5034539;28;20021;-68
2023/01/22 08:32:19;;;;;;;13.93;9.65;;;-0.20;99.90;;;;;;5049099;28;20032;-68
2023/01/22 08:34:45;;;;;;;17.08;9.48;;;-0.20;99.90;;;;;;5052643;28;20033;-68
2023/01/22 08:37:10;;;;;;;13.55;9.93;;;-0.10;99.90;;;;;;5046864;28;20434;-67
2023/01/22 08:39:36;;;;;;;14.38;9.73;;;-0.10;99.90;;;;;;5053408;28;20025;-67
2023/01/22 08:42:01;;;;;;;13.02;9.38;;;-0.10;99.90;;;;;;5053967;28;20059;-68
2023/01/22 08:44:27;;;;;;;19.20;9.63;;;-0.20;99.90;;;;;;5053954;28;20159;-67
2023/01/22 08:46:52;;;;;;;13.35;9.35;;;-0.20;99.90;;;;;;5053182;28;20025;-67
2023/01/22 08:49:20;;;;;;;20.73;7.93;;;-0.10;99.90;;;;;;5052086;28;20078;-68
2023/01/22 08:51:46;;;;;;;18.33;10.38;;;-0.10;99.90;;;;;;5053081;28;20036;-68
2023/01/22 08:54:11;;;;;;;12.18;8.40;;;-0.10;99.90;;;;;;5054241;28;20033;-68
2023/01/22 08:56:37;;;;;;;15.27;8.98;;;-0.10;99.90;;;;;;5054081;28;20079;-68
2023/01/22 08:59:05;;;;;;;14.93;8.68;;;-0.10;99.90;;;;;;5054128;28;20044;-68
2023/01/22 09:01:32;;;;;;;17.52;8.15;;;-0.10;99.90;;;;;;5053991;28;20036;-68
2023/01/22 09:03:58;;;;;;;14.32;9.32;;;-0.10;99.90;;;;;;5054311;28;20387;-68
2023/01/22 09:06:25;;;;;;;14.82;9.07;;;0.00;99.90;;;;;;5054100;28;20183;-68
2023/01/22 09:08:51;;;;;;;12.25;8.65;;;0.00;99.90;;;;;;5054257;28;20376;-68
2023/01/22 09:11:17;;;;;;;15.30;9.70;;;0.10;99.90;;;;;;5053881;28;20036;-68
2023/01/22 09:13:42;;;;;;;15.77;9.18;;;0.10;99.90;;;;;;5053810;28;20032;-68
2023/01/22 09:16:10;;;;;;;15.48;8.40;;;0.10;99.90;;;;;;5053547;28;20033;-68
2023/01/22 09:18:39;;;;;;;11.55;8.32;;;0.10;99.90;;;;;;5053740;28;20151;-68
2023/01/22 09:21:07;;;;;;;13.82;9.30;;;0.10;99.90;;;;;;5053520;28;20029;-68
2023/01/22 09:23:32;;;;;;;12.15;9.00;;;0.10;99.90;;;;;;5053652;28;20021;-68
2023/01/22 09:25:59;;;;;;;13.13;8.93;;;0.20;99.90;;;;;;5053912;28;20052;-68
2023/01/22 09:28:24;;;;;;;13.38;9.35;;;0.20;99.90;;;;;;5053634;28;20086;-68
2023/01/22 09:30:50;;;;;;;13.30;8.98;;;0.20;99.90;;;;;;5044824;28;20392;-68
2023/01/22 09:33:15;;;;;;;15.80;9.98;;;0.20;99.90;;;;;;5033536;28;20026;-68
2023/01/22 09:35:41;;;;;;;11.30;8.30;;;0.30;99.90;;;;;;5037950;28;20032;-68
2023/01/22 09:38:11;;;;;;;17.17;8.80;;;0.30;99.90;;;;;;5053396;28;20103;-68
2023/01/22 09:40:47;;;;;;;10.05;7.93;;;0.30;99.90;;;;;;5053774;28;20390;-67
2023/01/22 09:43:35;;;;;;;11.10;8.32;;;0.30;99.90;;;;;;5035503;28;20439;-68
2023/01/22 09:46:07;;;;;;;12.35;8.70;;;0.40;99.90;;;;;;5040318;28;20447;-68
2023/01/22 09:48:40;;;;;;;11.00;8.02;;;0.40;99.90;;;;;;5053604;28;20082;-67
2023/01/22 09:51:06;;;;;;;10.73;7.57;;;0.50;99.90;;;;;;5053600;28;20024;-68
2023/01/22 09:53:33;;;;;;;14.38;7.57;;;0.50;99.90;;;;;;5053022;28;20064;-68
2023/01/22 09:55:59;;;;;;;9.88;6.88;;;0.50;99.90;;;;;;5053391;28;20401;-68
2023/01/22 09:58:25;;;;;;;10.80;7.05;;;0.50;99.90;;;;;;5053157;28;20392;-68
2023/01/22 10:00:58;;;;;;;11.20;8.07;;;0.50;99.90;;;;;;5053074;28;20021;-68
2023/01/22 10:03:42;;;;;;;11.32;6.75;;;0.50;99.90;;;;;;5053005;28;20024;-68
2023/01/22 10:06:17;;;;;;;9.73;7.35;;;0.60;99.90;;;;;;5046696;28;20045;-68
2023/01/22 10:08:58;;;;;;;10.85;7.38;;;0.60;99.90;;;;;;5033203;28;20026;-68
2023/01/22 10:11:24;;;;;;;10.20;6.75;;;0.70;99.90;;;;;;5037527;28;20025;-68
2023/01/22 10:13:58;;;;;;;11.32;6.38;;;0.70;99.90;;;;;;5033368;28;20116;-67
2023/01/22 10:16:23;;;;;;;;;;;0.80;99.90;;;;;;5033541;28;20196;-67
2023/01/22 10:19:09;;;;;;;9.45;6.15;;;0.80;99.90;;;;;;5051450;28;20427;-67
2023/01/22 10:21:55;;;;;;;10.43;7.03;;;0.90;99.90;;;;;;5053451;28;20091;-68
2023/01/22 10:24:20;;;;;;;7.95;5.20;;;0.80;99.90;;;;;;5051366;28;20029;-67
2023/01/22 10:26:47;;;;;;;8.90;5.93;;;0.80;99.90;;;;;;5052857;28;20386;-67
2023/01/22 10:29:26;;;;;;;12.00;6.35;;;0.80;99.90;;;;;;5037895;28;20484;-68
2023/01/22 10:31:55;;;;;;;9.73;5.88;;;0.80;99.90;;;;;;5050314;28;20117;-68
2023/01/22 10:34:29;;;;;;;7.55;5.68;;;0.80;99.90;;;;;;5052850;28;20072;-68
2023/01/22 10:36:58;;;;;;;6.97;5.35;;;0.80;99.90;;;;;;5052766;28;20538;-68
2023/01/22 10:39:23;;;;;;;8.88;5.18;;;0.80;99.90;;;;;;5052831;28;20033;-68
2023/01/22 10:41:49;;;;;;;10.57;4.72;;;0.90;99.90;;;;;;5050851;28;20395;-68
2023/01/22 10:44:14;;;;;;;10.00;5.05;;;0.90;99.90;;;;;;5051125;28;20028;-68
2023/01/22 10:46:40;;;;;;;8.75;5.68;;;0.90;99.90;;;;;;5051615;28;20029;-68
2023/01/22 10:49:13;;;;;;;9.52;5.03;;;0.90;99.90;;;;;;5055569;28;20044;-68
2023/01/22 10:51:41;;;;;;;7.65;5.47;;;0.90;99.90;;;;;;5056470;28;20037;-68
2023/01/22 10:54:23;;;;;;;8.05;5.63;;;0.90;99.90;;;;;;5056842;28;20560;-68
2023/01/22 10:56:49;;;;;;;8.15;5.57;;;1.00;99.90;;;;;;5054003;28;20029;-68
2023/01/22 10:59:28;;;;;;;11.73;5.63;;;1.00;99.90;;;;;;5056385;28;20021;-68
2023/01/22 11:01:59;;;;;;;7.15;5.63;;;1.10;99.90;;;;;;5056594;28;20025;-68
2023/01/22 11:04:28;;;;;;;8.18;5.88;;;1.10;99.90;;;;;;5055955;28;20116;-68
2023/01/22 11:07:26;;;;;;;8.38;4.88;;;1.20;99.90;;;;;;5056534;28;20036;-68
2023/01/22 11:09:58;;;;;;;10.77;5.40;;;1.20;99.90;;;;;;5042295;28;20377;-68
2023/01/22 11:12:29;;;;;;;10.15;4.32;;;1.30;99.90;;;;;;5056278;28;20035;-69
2023/01/22 11:15:24;;;;;;;7.57;4.57;;;1.30;99.90;;;;;;5056338;28;20067;-68
2023/01/22 11:17:56;;;;;;;9.55;5.85;;;1.40;99.90;;;;;;5056367;28;20503;-68
2023/01/22 11:20:29;;;;;;;7.43;5.13;;;1.30;99.90;;;;;;5042103;28;20033;-68
2023/01/22 11:23:09;;;;;;;10.75;6.32;;;1.40;99.90;;;;;;5036536;28;20528;-68
2023/01/22 11:25:42;;;;;;;7.57;5.00;;;1.30;99.90;;;;;;5038060;28;20434;-68
2023/01/22 11:28:28;;;;;;;13.63;5.90;;;1.30;99.90;;;;;;5034753;28;20022;-68
2023/01/22 11:31:11;;;;;;;9.85;5.68;;;1.40;99.90;;;;;;5047402;28;20037;-68
2023/01/22 11:34:04;;;;;;;9.30;5.60;;;1.30;99.90;;;;;;5055829;28;20392;-68
2023/01/22 11:36:44;;;;;;;10.02;5.70;;;1.30;99.90;;;;;;5055597;28;20107;-68
2023/01/22 11:39:40;;;;;;;11.73;5.50;;;1.30;99.90;;;;;;5056002;28;20021;-68
2023/01/22 11:42:36;;;;;;;8.68;5.47;;;1.30;99.90;;;;;;5051969;28;20020;-68
2023/01/22 11:45:08;;;;;;;10.65;5.93;;;1.30;99.90;;;;;;5054332;28;20021;-68
2023/01/22 11:47:53;;;;;;;13.30;5.28;;;1.40;99.90;;;;;;5036202;28;20611;-68
2023/01/22 11:50:33;;;;;;;9.57;6.00;;;1.50;99.90;;;;;;5050981;28;20029;-68
2023/01/22 11:53:23;;;;;;;17.05;7.55;;;1.50;99.90;;;;;;5075604;22;20072;-71
2023/01/22 11:56:14;;;;;;;9.57;6.10;;;1.50;99.90;;;;;;5055117;28;20032;-70
2023/01/22 11:59:10;;;;;;;13.93;7.68;;;1.50;99.90;;;;;;5055131;28;20310;-70
2023/01/22 12:02:04;;;;;;;12.82;7.03;;;1.50;99.90;;;;;;5053603;28;20025;-70
2023/01/22 12:04:53;;;;;;;12.73;5.78;;;1.50;99.90;;;;;;5055689;28;20384;-70
2023/01/22 12:07:19;;;;;;;9.10;5.57;;;1.40;99.90;;;;;;5055161;28;20028;-70
2023/01/22 12:09:51;;;;;;;9.82;5.82;;;1.40;99.90;;;;;;5055442;28;20025;-70
2023/01/22 12:12:41;;;;;;;11.85;6.50;;;1.40;99.90;;;;;;5055183;28;20032;-70
2023/01/22 12:15:26;;;;;;;8.20;5.50;;;1.40;99.90;;;;;;5055391;28;20383;-70
2023/01/22 12:18:46;;;;;;;8.77;5.68;;;1.40;99.90;;;;;;5055168;28;20463;-70
2023/01/22 12:21:34;;;;;;;12.10;6.30;;;1.50;99.90;;;;;;4993649;28;20482;-70
2023/01/22 12:24:07;;;;;;;11.07;6.47;;;1.50;99.90;;;;;;5055306;28;20498;-70
2023/01/22 12:26:38;;;;;;;13.70;7.00;;;1.40;99.90;;;;;;5070543;28;20057;-71
2023/01/22 12:29:39;;;;;;;16.70;7.25;;;1.40;99.90;;;;;;5055433;28;20079;-69
2023/01/22 12:32:11;;;;;;;11.43;6.18;;;1.40;99.90;;;;;;5046739;28;20120;-70
2023/01/22 12:35:07;;;;;;;14.40;7.68;;;1.40;99.90;;;;;;5055830;28;20029;-71
2023/01/22 12:37:47;;;;;;;11.40;6.68;;;1.40;99.90;;;;;;5055699;28;20492;-70
2023/01/22 12:40:30;;;;;;;12.75;6.68;;;1.40;99.90;;;;;;5055008;28;20528;-70
2023/01/22 12:43:06;;;;;;;18.38;11.88;;;1.40;99.90;;;;;;5054644;28;20108;-70
2023/01/22 12:45:42;;;;;;;17.42;10.35;;;1.40;99.90;;;;;;5054934;28;20044;-70
2023/01/22 12:48:21;;;;;;;15.13;9.13;;;1.50;99.90;;;;;;5054792;28;20048;-70
2023/01/22 12:50:57;;;;;;;14.77;7.57;;;1.50;99.90;;;;;;5054444;28;20025;-70
2023/01/22 12:53:33;;;;;;;15.65;8.02;;;1.50;99.90;;;;;;5054223;28;20036;-70
2023/01/22 12:56:04;;;;;;;12.00;7.88;;;1.50;99.90;;;;;;5054525;28;20074;-70
2023/01/22 12:58:33;;;;;;;13.65;8.30;;;1.50;99.90;;;;;;5054587;28;20113;-70
2023/01/22 13:01:10;;;;;;;17.08;8.35;;;1.60;99.90;;;;;;5054394;28;20074;-70
2023/01/22 13:03:38;;;;;;;17.45;8.30;;;1.50;99.90;;;;;;5054533;28;20021;-70